sensor_id;sensor_type;location;lat;lon;timestamp;temperature;humidity
9987;DHT22;5033;46.310;11.214;2023-07-22T00:01:26;17.80;99.90
9987;DHT22;5033;46.310;11.214;2023-07-22T00:03:54;17.70;99.90
9987;DHT22;5033;46.310;11.214;2023-07-22T00:06:20;17.70;99.90
9987;DHT22;5033;46.310;11.214;2023-07-22T00:08:47;17.70;99.90
9987;DHT22;5033;46.310;11.214;2023-07-22T00:11:14;17.70;99.90
9987;DHT22;5033;46.310;11.214;2023-07-22T00:13:42;17.60;99.90
9987;DHT22;5033;46.310;11.214;2023-07-22T00:16:09;17.50;99.90
9987;DHT22;5033;46.310;11.214;2023-07-22T00:18:36;17.50;99.90
9987;DHT22;5033;46.310;11.214;2023-07-22T00:21:04;17.50;99.90
9987;DHT22;5033;46.310;11.214;2023-07-22T00:23:31;17.40;99.90
9987;DHT22;5033;46.310;11.214;2023-07-22T00:25:58;17.40;99.90
9987;DHT22;5033;46.310;11.214;2023-07-22T00:28:25;17.40;99.90
9987;DHT22;5033;46.310;11.214;2023-07-22T00:30:53;17.40;99.90
9987;DHT22;5033;46.310;11.214;2023-07-22T00:33:20;17.30;99.90
9987;DHT22;5033;46.310;11.214;2023-07-22T00:35:47;17.20;99.90
9987;DHT22;5033;46.310;11.214;2023-07-22T00:38:15;17.20;99.90
9987;DHT22;5033;46.310;11.214;2023-07-22T00:40:42;17.20;99.90
9987;DHT22;5033;46.310;11.214;2023-07-22T00:43:10;17.20;99.90
9987;DHT22;5033;46.310;11.214;2023-07-22T00:45:37;17.10;99.90
9987;DHT22;5033;46.310;11.214;2023-07-22T00:48:07;17.10;99.90
9987;DHT22;5033;46.310;11.214;2023-07-22T00:50:35;17.10;99.90
9987;DHT22;5033;46.310;11.214;2023-07-22T00:53:03;17.10;99.90
9987;DHT22;5033;46.310;11.214;2023-07-22T00:55:32;17.10;99.90
9987;DHT22;5033;46.310;11.214;2023-07-22T00:57:59;17.10;99.90
9987;DHT22;5033;46.310;11.214;2023-07-22T01:00:26;17.10;99.90
9987;DHT22;5033;46.310;11.214;2023-07-22T01:02:53;17.10;99.90
9987;DHT22;5033;46.310;11.214;2023-07-22T01:05:22;17.00;99.90
9987;DHT22;5033;46.310;11.214;2023-07-22T01:07:50;17.00;99.90
9987;DHT22;5033;46.310;11.214;2023-07-22T01:10:18;17.00;99.90
9987;DHT22;5033;46.310;11.214;2023-07-22T01:12:45;17.00;99.90
9987;DHT22;5033;46.310;11.214;2023-07-22T01:15:12;17.00;99.90
9987;DHT22;5033;46.310;11.214;2023-07-22T01:17:39;17.00;99.90
9987;DHT22;5033;46.310;11.214;2023-07-22T01:20:07;17.00;99.90
9987;DHT22;5033;46.310;11.214;2023-07-22T01:22:36;16.90;99.90
9987;DHT22;5033;46.310;11.214;2023-07-22T01:25:07;16.90;99.90
9987;DHT22;5033;46.310;11.214;2023-07-22T01:27:35;16.90;99.90
9987;DHT22;5033;46.310;11.214;2023-07-22T01:30:02;16.90;99.90
9987;DHT22;5033;46.310;11.214;2023-07-22T01:32:29;16.90;99.90
9987;DHT22;5033;46.310;11.214;2023-07-22T01:34:57;16.90;99.90
9987;DHT22;5033;46.310;11.214;2023-07-22T01:37:24;16.80;99.90
9987;DHT22;5033;46.310;11.214;2023-07-22T01:39:51;16.80;99.90
9987;DHT22;5033;46.310;11.214;2023-07-22T01:42:20;16.80;99.90
9987;DHT22;5033;46.310;11.214;2023-07-22T01:44:47;16.80;99.90
9987;DHT22;5033;46.310;11.214;2023-07-22T01:47:14;16.80;99.90
9987;DHT22;5033;46.310;11.214;2023-07-22T01:49:41;16.80;99.90
9987;DHT22;5033;46.310;11.214;2023-07-22T01:52:08;16.80;99.90
9987;DHT22;5033;46.310;11.214;2023-07-22T01:54:35;16.80;99.90
9987;DHT22;5033;46.310;11.214;2023-07-22T01:57:02;16.80;99.90
9987;DHT22;5033;46.310;11.214;2023-07-22T01:59:30;16.80;99.90
9987;DHT22;5033;46.310;11.214;2023-07-22T02:01:57;16.80;99.90
9987;DHT22;5033;46.310;11.214;2023-07-22T02:04:25;16.80;99.90
9987;DHT22;5033;46.310;11.214;2023-07-22T02:06:52;16.70;99.90
9987;DHT22;5033;46.310;11.214;2023-07-22T02:09:19;16.70;99.90
9987;DHT22;5033;46.310;11.214;2023-07-22T02:11:46;16.70;99.90
9987;DHT22;5033;46.310;11.214;2023-07-22T02:14:13;16.60;99.90
9987;DHT22;5033;46.310;11.214;2023-07-22T02:16:42;16.60;99.90
9987;DHT22;5033;46.310;11.214;2023-07-22T02:19:09;16.60;99.90
9987;DHT22;5033;46.310;11.214;2023-07-22T02:21:36;16.60;99.90
9987;DHT22;5033;46.310;11.214;2023-07-22T02:24:03;16.60;99.90
9987;DHT22;5033;46.310;11.214;2023-07-22T02:26:30;16.60;99.90
9987;DHT22;5033;46.310;11.214;2023-07-22T02:28:57;16.60;99.90
9987;DHT22;5033;46.310;11.214;2023-07-22T02:31:24;16.60;99.90
9987;DHT22;5033;46.310;11.214;2023-07-22T02:33:52;16.60;99.90
9987;DHT22;5033;46.310;11.214;2023-07-22T02:36:19;16.60;99.90
9987;DHT22;5033;46.310;11.214;2023-07-22T02:38:46;16.60;99.90
9987;DHT22;5033;46.310;11.214;2023-07-22T02:41:13;16.50;99.90
9987;DHT22;5033;46.310;11.214;2023-07-22T02:43:40;16.50;99.90
9987;DHT22;5033;46.310;11.214;2023-07-22T02:46:07;16.50;99.90
9987;DHT22;5033;46.310;11.214;2023-07-22T02:48:34;16.50;99.90
9987;DHT22;5033;46.310;11.214;2023-07-22T02:51:04;16.50;99.90
9987;DHT22;5033;46.310;11.214;2023-07-22T02:53:31;16.50;99.90
9987;DHT22;5033;46.310;11.214;2023-07-22T02:55:59;16.50;99.90
9987;DHT22;5033;46.310;11.214;2023-07-22T02:58:26;16.50;99.90
9987;DHT22;5033;46.310;11.214;2023-07-22T03:00:53;16.50;99.90
9987;DHT22;5033;46.310;11.214;2023-07-22T03:03:20;16.50;99.90
9987;DHT22;5033;46.310;11.214;2023-07-22T03:05:47;16.50;99.90
9987;DHT22;5033;46.310;11.214;2023-07-22T03:08:16;16.50;99.90
9987;DHT22;5033;46.310;11.214;2023-07-22T03:10:44;16.50;99.90
9987;DHT22;5033;46.310;11.214;2023-07-22T03:13:14;16.50;99.90
9987;DHT22;5033;46.310;11.214;2023-07-22T03:15:41;16.40;99.90
9987;DHT22;5033;46.310;11.214;2023-07-22T03:18:08;16.40;99.90
9987;DHT22;5033;46.310;11.214;2023-07-22T03:20:35;16.40;99.90
9987;DHT22;5033;46.310;11.214;2023-07-22T03:23:03;16.40;99.90
9987;DHT22;5033;46.310;11.214;2023-07-22T03:25:32;16.40;99.90
9987;DHT22;5033;46.310;11.214;2023-07-22T03:28:00;16.50;99.90
9987;DHT22;5033;46.310;11.214;2023-07-22T03:30:28;16.40;99.90
9987;DHT22;5033;46.310;11.214;2023-07-22T03:32:56;16.40;99.90
9987;DHT22;5033;46.310;11.214;2023-07-22T03:35:23;16.40;99.90
9987;DHT22;5033;46.310;11.214;2023-07-22T03:37:50;16.40;99.90
9987;DHT22;5033;46.310;11.214;2023-07-22T03:40:17;16.40;99.90
9987;DHT22;5033;46.310;11.214;2023-07-22T03:42:47;16.40;99.90
9987;DHT22;5033;46.310;11.214;2023-07-22T03:45:14;16.40;99.90
9987;DHT22;5033;46.310;11.214;2023-07-22T03:47:43;16.40;99.90
9987;DHT22;5033;46.310;11.214;2023-07-22T03:50:10;16.40;99.90
9987;DHT22;5033;46.310;11.214;2023-07-22T03:52:37;16.30;99.90
9987;DHT22;5033;46.310;11.214;2023-07-22T03:55:05;16.30;99.90
9987;DHT22;5033;46.310;11.214;2023-07-22T03:57:32;16.40;99.90
9987;DHT22;5033;46.310;11.214;2023-07-22T04:00:00;16.30;99.90
9987;DHT22;5033;46.310;11.214;2023-07-22T04:02:28;16.40;99.90
9987;DHT22;5033;46.310;11.214;2023-07-22T04:04:56;16.30;99.90
9987;DHT22;5033;46.310;11.214;2023-07-22T04:07:23;16.40;99.90
9987;DHT22;5033;46.310;11.214;2023-07-22T04:09:50;16.40;99.90
9987;DHT22;5033;46.310;11.214;2023-07-22T04:12:17;16.40;99.90
9987;DHT22;5033;46.310;11.214;2023-07-22T04:14:44;16.40;99.90
9987;DHT22;5033;46.310;11.214;2023-07-22T04:17:12;16.50;99.90
9987;DHT22;5033;46.310;11.214;2023-07-22T04:19:40;16.50;99.90
9987;DHT22;5033;46.310;11.214;2023-07-22T04:22:07;16.50;99.90
9987;DHT22;5033;46.310;11.214;2023-07-22T04:24:35;16.50;99.90
9987;DHT22;5033;46.310;11.214;2023-07-22T04:27:03;16.50;99.90
9987;DHT22;5033;46.310;11.214;2023-07-22T04:29:30;16.40;99.90
9987;DHT22;5033;46.310;11.214;2023-07-22T04:31:58;16.50;99.90
9987;DHT22;5033;46.310;11.214;2023-07-22T04:34:29;16.50;99.90
9987;DHT22;5033;46.310;11.214;2023-07-22T04:36:56;16.50;99.90
9987;DHT22;5033;46.310;11.214;2023-07-22T04:39:23;16.60;99.90
9987;DHT22;5033;46.310;11.214;2023-07-22T04:41:51;16.70;99.90
9987;DHT22;5033;46.310;11.214;2023-07-22T04:44:18;16.80;99.90
9987;DHT22;5033;46.310;11.214;2023-07-22T04:46:46;16.90;99.90
9987;DHT22;5033;46.310;11.214;2023-07-22T04:49:13;17.10;99.90
9987;DHT22;5033;46.310;11.214;2023-07-22T04:51:44;17.20;99.90
9987;DHT22;5033;46.310;11.214;2023-07-22T04:54:11;17.30;99.90
9987;DHT22;5033;46.310;11.214;2023-07-22T04:56:38;17.30;99.90
9987;DHT22;5033;46.310;11.214;2023-07-22T04:59:05;17.30;99.90
9987;DHT22;5033;46.310;11.214;2023-07-22T05:01:32;17.30;99.90
9987;DHT22;5033;46.310;11.214;2023-07-22T05:03:59;17.30;99.90
9987;DHT22;5033;46.310;11.214;2023-07-22T05:06:27;17.30;99.90
9987;DHT22;5033;46.310;11.214;2023-07-22T05:08:56;17.30;99.90
9987;DHT22;5033;46.310;11.214;2023-07-22T05:11:22;17.30;99.90
9987;DHT22;5033;46.310;11.214;2023-07-22T05:13:49;17.40;99.90
9987;DHT22;5033;46.310;11.214;2023-07-22T05:16:16;17.40;99.90
9987;DHT22;5033;46.310;11.214;2023-07-22T05:18:43;17.50;99.90
9987;DHT22;5033;46.310;11.214;2023-07-22T05:21:10;17.60;99.90
9987;DHT22;5033;46.310;11.214;2023-07-22T05:23:37;17.60;99.90
9987;DHT22;5033;46.310;11.214;2023-07-22T05:26:05;17.70;99.90
9987;DHT22;5033;46.310;11.214;2023-07-22T05:28:32;17.80;99.90
9987;DHT22;5033;46.310;11.214;2023-07-22T05:30:59;17.80;99.90
9987;DHT22;5033;46.310;11.214;2023-07-22T05:33:26;17.80;99.90
9987;DHT22;5033;46.310;11.214;2023-07-22T05:35:53;17.90;99.90
9987;DHT22;5033;46.310;11.214;2023-07-22T05:38:20;18.10;99.90
9987;DHT22;5033;46.310;11.214;2023-07-22T05:40:47;18.50;99.90
9987;DHT22;5033;46.310;11.214;2023-07-22T05:43:15;18.70;99.90
9987;DHT22;5033;46.310;11.214;2023-07-22T05:45:42;18.70;99.90
9987;DHT22;5033;46.310;11.214;2023-07-22T05:48:09;18.60;99.90
9987;DHT22;5033;46.310;11.214;2023-07-22T05:50:36;18.50;99.90
9987;DHT22;5033;46.310;11.214;2023-07-22T05:53:03;18.40;99.90
9987;DHT22;5033;46.310;11.214;2023-07-22T05:55:30;18.40;99.90
9987;DHT22;5033;46.310;11.214;2023-07-22T05:57:57;18.50;99.90
9987;DHT22;5033;46.310;11.214;2023-07-22T06:00:26;18.50;99.90
9987;DHT22;5033;46.310;11.214;2023-07-22T06:02:53;18.50;99.90
9987;DHT22;5033;46.310;11.214;2023-07-22T06:05:20;18.60;99.90
9987;DHT22;5033;46.310;11.214;2023-07-22T06:07:47;18.70;99.90
9987;DHT22;5033;46.310;11.214;2023-07-22T06:10:14;19.00;99.90
9987;DHT22;5033;46.310;11.214;2023-07-22T06:12:41;19.30;99.90
9987;DHT22;5033;46.310;11.214;2023-07-22T06:15:09;19.50;99.90
9987;DHT22;5033;46.310;11.214;2023-07-22T06:17:37;19.70;99.90
9987;DHT22;5033;46.310;11.214;2023-07-22T06:20:05;19.70;99.90
9987;DHT22;5033;46.310;11.214;2023-07-22T06:22:32;19.60;99.90
9987;DHT22;5033;46.310;11.214;2023-07-22T06:24:59;19.80;99.90
9987;DHT22;5033;46.310;11.214;2023-07-22T06:27:26;19.80;99.90
9987;DHT22;5033;46.310;11.214;2023-07-22T06:29:53;19.70;99.90
9987;DHT22;5033;46.310;11.214;2023-07-22T06:32:20;19.70;99.90
9987;DHT22;5033;46.310;11.214;2023-07-22T06:34:49;19.50;99.90
9987;DHT22;5033;46.310;11.214;2023-07-22T06:37:16;19.40;99.90
9987;DHT22;5033;46.310;11.214;2023-07-22T06:39:43;19.30;99.90
9987;DHT22;5033;46.310;11.214;2023-07-22T06:42:10;19.30;99.90
9987;DHT22;5033;46.310;11.214;2023-07-22T06:44:36;19.30;99.90
9987;DHT22;5033;46.310;11.214;2023-07-22T06:47:03;19.20;99.90
9987;DHT22;5033;46.310;11.214;2023-07-22T06:49:31;19.30;99.90
9987;DHT22;5033;46.310;11.214;2023-07-22T06:51:59;19.40;99.90
9987;DHT22;5033;46.310;11.214;2023-07-22T06:54:27;19.60;99.90
9987;DHT22;5033;46.310;11.214;2023-07-22T06:56:54;19.70;99.90
9987;DHT22;5033;46.310;11.214;2023-07-22T06:59:21;19.80;99.90
9987;DHT22;5033;46.310;11.214;2023-07-22T07:01:48;19.90;99.90
9987;DHT22;5033;46.310;11.214;2023-07-22T07:04:15;20.00;99.90
9987;DHT22;5033;46.310;11.214;2023-07-22T07:06:42;20.10;99.90
9987;DHT22;5033;46.310;11.214;2023-07-22T07:09:10;20.50;99.90
9987;DHT22;5033;46.310;11.214;2023-07-22T07:11:37;20.70;99.90
9987;DHT22;5033;46.310;11.214;2023-07-22T07:14:04;20.80;99.90
9987;DHT22;5033;46.310;11.214;2023-07-22T07:16:31;21.10;99.90
9987;DHT22;5033;46.310;11.214;2023-07-22T07:19:00;21.50;99.90
9987;DHT22;5033;46.310;11.214;2023-07-22T07:21:27;21.60;99.90
9987;DHT22;5033;46.310;11.214;2023-07-22T07:23:54;21.60;99.90
9987;DHT22;5033;46.310;11.214;2023-07-22T07:26:23;21.40;99.90
9987;DHT22;5033;46.310;11.214;2023-07-22T07:28:50;21.40;99.90
9987;DHT22;5033;46.310;11.214;2023-07-22T07:31:17;21.50;99.90
9987;DHT22;5033;46.310;11.214;2023-07-22T07:33:44;21.70;99.90
9987;DHT22;5033;46.310;11.214;2023-07-22T07:36:11;21.70;99.90
9987;DHT22;5033;46.310;11.214;2023-07-22T07:38:38;21.70;99.90
9987;DHT22;5033;46.310;11.214;2023-07-22T07:41:06;21.80;99.90
9987;DHT22;5033;46.310;11.214;2023-07-22T07:43:36;21.80;99.90
9987;DHT22;5033;46.310;11.214;2023-07-22T07:46:12;21.90;99.90
9987;DHT22;5033;46.310;11.214;2023-07-22T07:48:40;22.00;99.90
9987;DHT22;5033;46.310;11.214;2023-07-22T07:51:07;22.30;99.90
9987;DHT22;5033;46.310;11.214;2023-07-22T07:53:33;22.40;99.90
9987;DHT22;5033;46.310;11.214;2023-07-22T07:56:00;22.40;99.90
9987;DHT22;5033;46.310;11.214;2023-07-22T07:58:27;22.40;99.90
9987;DHT22;5033;46.310;11.214;2023-07-22T08:00:56;22.20;99.90
9987;DHT22;5033;46.310;11.214;2023-07-22T08:03:23;22.10;99.90
9987;DHT22;5033;46.310;11.214;2023-07-22T08:05:50;22.20;99.90
9987;DHT22;5033;46.310;11.214;2023-07-22T08:08:17;22.20;99.90
9987;DHT22;5033;46.310;11.214;2023-07-22T08:10:44;22.30;99.90
9987;DHT22;5033;46.310;11.214;2023-07-22T08:13:11;22.30;99.90
9987;DHT22;5033;46.310;11.214;2023-07-22T08:15:38;22.30;99.90
9987;DHT22;5033;46.310;11.214;2023-07-22T08:18:06;22.30;99.90
9987;DHT22;5033;46.310;11.214;2023-07-22T08:20:33;22.40;99.90
9987;DHT22;5033;46.310;11.214;2023-07-22T08:23:00;22.50;99.90
9987;DHT22;5033;46.310;11.214;2023-07-22T08:25:27;22.70;99.90
9987;DHT22;5033;46.310;11.214;2023-07-22T08:27:54;22.80;99.90
9987;DHT22;5033;46.310;11.214;2023-07-22T08:30:21;23.00;99.90
9987;DHT22;5033;46.310;11.214;2023-07-22T08:32:48;23.40;99.90
9987;DHT22;5033;46.310;11.214;2023-07-22T08:35:16;23.70;99.90
9987;DHT22;5033;46.310;11.214;2023-07-22T08:37:43;23.80;99.90
9987;DHT22;5033;46.310;11.214;2023-07-22T08:40:12;23.70;99.90
9987;DHT22;5033;46.310;11.214;2023-07-22T08:42:40;23.80;99.90
9987;DHT22;5033;46.310;11.214;2023-07-22T08:45:09;24.10;99.90
9987;DHT22;5033;46.310;11.214;2023-07-22T08:47:39;24.10;99.90
9987;DHT22;5033;46.310;11.214;2023-07-22T08:50:10;24.10;99.90
9987;DHT22;5033;46.310;11.214;2023-07-22T08:52:39;23.70;99.90
9987;DHT22;5033;46.310;11.214;2023-07-22T08:55:07;23.70;99.90
9987;DHT22;5033;46.310;11.214;2023-07-22T08:57:37;23.80;99.90
9987;DHT22;5033;46.310;11.214;2023-07-22T09:00:06;24.00;99.90
9987;DHT22;5033;46.310;11.214;2023-07-22T09:02:35;24.00;99.90
9987;DHT22;5033;46.310;11.214;2023-07-22T09:05:03;24.30;99.90
9987;DHT22;5033;46.310;11.214;2023-07-22T09:07:29;24.50;99.90
9987;DHT22;5033;46.310;11.214;2023-07-22T09:09:59;24.50;99.90
9987;DHT22;5033;46.310;11.214;2023-07-22T09:12:27;24.50;99.90
9987;DHT22;5033;46.310;11.214;2023-07-22T09:14:54;24.60;99.90
9987;DHT22;5033;46.310;11.214;2023-07-22T09:17:22;24.70;99.90
9987;DHT22;5033;46.310;11.214;2023-07-22T09:19:52;24.70;99.90
9987;DHT22;5033;46.310;11.214;2023-07-22T09:22:25;24.70;99.90
9987;DHT22;5033;46.310;11.214;2023-07-22T09:24:52;24.80;99.90
9987;DHT22;5033;46.310;11.214;2023-07-22T09:27:33;24.90;99.90
9987;DHT22;5033;46.310;11.214;2023-07-22T09:30:00;25.10;99.90
9987;DHT22;5033;46.310;11.214;2023-07-22T09:32:35;25.30;99.90
9987;DHT22;5033;46.310;11.214;2023-07-22T09:35:03;25.30;99.90
9987;DHT22;5033;46.310;11.214;2023-07-22T09:37:36;25.30;99.90
9987;DHT22;5033;46.310;11.214;2023-07-22T09:40:13;25.50;99.90
9987;DHT22;5033;46.310;11.214;2023-07-22T09:42:45;25.50;99.90
9987;DHT22;5033;46.310;11.214;2023-07-22T09:45:12;25.40;99.90
9987;DHT22;5033;46.310;11.214;2023-07-22T09:47:43;25.40;99.90
9987;DHT22;5033;46.310;11.214;2023-07-22T09:50:20;25.40;99.90
9987;DHT22;5033;46.310;11.214;2023-07-22T09:52:49;25.70;99.90
9987;DHT22;5033;46.310;11.214;2023-07-22T09:55:18;26.00;99.90
9987;DHT22;5033;46.310;11.214;2023-07-22T09:57:49;26.20;99.90
9987;DHT22;5033;46.310;11.214;2023-07-22T10:00:16;26.30;99.90
9987;DHT22;5033;46.310;11.214;2023-07-22T10:02:46;26.40;99.90
9987;DHT22;5033;46.310;11.214;2023-07-22T10:05:16;26.20;99.90
9987;DHT22;5033;46.310;11.214;2023-07-22T10:07:45;26.00;99.90
9987;DHT22;5033;46.310;11.214;2023-07-22T10:10:14;26.00;99.90
9987;DHT22;5033;46.310;11.214;2023-07-22T10:12:42;26.20;99.90
9987;DHT22;5033;46.310;11.214;2023-07-22T10:15:12;26.10;99.90
9987;DHT22;5033;46.310;11.214;2023-07-22T10:17:39;26.10;99.90
9987;DHT22;5033;46.310;11.214;2023-07-22T10:20:07;26.20;99.90
9987;DHT22;5033;46.310;11.214;2023-07-22T10:22:36;26.30;99.90
9987;DHT22;5033;46.310;11.214;2023-07-22T10:25:06;26.50;99.90
9987;DHT22;5033;46.310;11.214;2023-07-22T10:27:34;26.50;99.90
9987;DHT22;5033;46.310;11.214;2023-07-22T10:30:02;26.60;99.90
9987;DHT22;5033;46.310;11.214;2023-07-22T10:32:35;26.90;99.90
9987;DHT22;5033;46.310;11.214;2023-07-22T10:35:03;26.80;99.90
9987;DHT22;5033;46.310;11.214;2023-07-22T10:37:31;26.80;99.90
9987;DHT22;5033;46.310;11.214;2023-07-22T10:40:00;26.90;99.90
9987;DHT22;5033;46.310;11.214;2023-07-22T10:42:31;26.90;99.90
9987;DHT22;5033;46.310;11.214;2023-07-22T10:45:00;27.00;99.90
9987;DHT22;5033;46.310;11.214;2023-07-22T10:47:35;26.90;99.90
9987;DHT22;5033;46.310;11.214;2023-07-22T10:50:08;26.90;99.90
9987;DHT22;5033;46.310;11.214;2023-07-22T10:52:41;26.90;99.90
9987;DHT22;5033;46.310;11.214;2023-07-22T10:55:19;27.10;99.90
9987;DHT22;5033;46.310;11.214;2023-07-22T10:57:50;27.10;99.90
9987;DHT22;5033;46.310;11.214;2023-07-22T11:00:19;27.20;99.90
9987;DHT22;5033;46.310;11.214;2023-07-22T11:03:09;27.40;99.90
9987;DHT22;5033;46.310;11.214;2023-07-22T11:05:50;27.30;99.90
9987;DHT22;5033;46.310;11.214;2023-07-22T11:08:35;27.30;99.90
9987;DHT22;5033;46.310;11.214;2023-07-22T11:11:03;27.60;99.90
9987;DHT22;5033;46.310;11.214;2023-07-22T11:13:37;27.80;99.90
9987;DHT22;5033;46.310;11.214;2023-07-22T11:16:04;27.70;99.90
9987;DHT22;5033;46.310;11.214;2023-07-22T11:18:40;27.30;99.90
9987;DHT22;5033;46.310;11.214;2023-07-22T11:21:09;27.40;99.90
9987;DHT22;5033;46.310;11.214;2023-07-22T11:23:36;27.10;99.90
9987;DHT22;5033;46.310;11.214;2023-07-22T11:26:03;26.90;99.90
9987;DHT22;5033;46.310;11.214;2023-07-22T11:28:31;26.80;99.90
9987;DHT22;5033;46.310;11.214;2023-07-22T11:30:58;27.00;99.90
9987;DHT22;5033;46.310;11.214;2023-07-22T11:33:31;27.50;99.90
9987;DHT22;5033;46.310;11.214;2023-07-22T11:36:05;27.90;99.90
9987;DHT22;5033;46.310;11.214;2023-07-22T11:38:32;28.00;99.90
9987;DHT22;5033;46.310;11.214;2023-07-22T11:41:00;28.00;99.90
9987;DHT22;5033;46.310;11.214;2023-07-22T11:43:27;28.00;99.90
9987;DHT22;5033;46.310;11.214;2023-07-22T11:45:54;28.20;99.90
9987;DHT22;5033;46.310;11.214;2023-07-22T11:48:21;28.30;99.90
9987;DHT22;5033;46.310;11.214;2023-07-22T11:50:48;28.10;99.90
9987;DHT22;5033;46.310;11.214;2023-07-22T11:53:16;27.90;99.90
9987;DHT22;5033;46.310;11.214;2023-07-22T11:55:44;27.50;99.90
9987;DHT22;5033;46.310;11.214;2023-07-22T11:58:11;27.40;99.90
9987;DHT22;5033;46.310;11.214;2023-07-22T12:00:42;27.40;99.90
9987;DHT22;5033;46.310;11.214;2023-07-22T12:03:10;27.20;99.90
9987;DHT22;5033;46.310;11.214;2023-07-22T12:05:37;27.00;99.90
9987;DHT22;5033;46.310;11.214;2023-07-22T12:08:04;26.70;99.90
9987;DHT22;5033;46.310;11.214;2023-07-22T12:10:33;26.60;99.90
9987;DHT22;5033;46.310;11.214;2023-07-22T12:13:01;26.50;99.90
9987;DHT22;5033;46.310;11.214;2023-07-22T12:15:28;26.40;99.90
9987;DHT22;5033;46.310;11.214;2023-07-22T12:17:56;26.30;99.90
9987;DHT22;5033;46.310;11.214;2023-07-22T12:20:25;26.20;99.90
9987;DHT22;5033;46.310;11.214;2023-07-22T12:22:52;26.00;99.90
9987;DHT22;5033;46.310;11.214;2023-07-22T12:25:19;26.10;99.90
9987;DHT22;5033;46.310;11.214;2023-07-22T12:27:48;26.20;99.90
9987;DHT22;5033;46.310;11.214;2023-07-22T12:30:15;26.40;99.90
9987;DHT22;5033;46.310;11.214;2023-07-22T12:32:42;26.70;99.90
9987;DHT22;5033;46.310;11.214;2023-07-22T12:35:09;27.00;99.90
9987;DHT22;5033;46.310;11.214;2023-07-22T12:37:36;27.40;99.90
9987;DHT22;5033;46.310;11.214;2023-07-22T12:40:04;27.70;99.90
9987;DHT22;5033;46.310;11.214;2023-07-22T12:42:33;28.00;99.90
9987;DHT22;5033;46.310;11.214;2023-07-22T12:45:02;28.30;99.90
9987;DHT22;5033;46.310;11.214;2023-07-22T12:47:29;28.40;99.90
9987;DHT22;5033;46.310;11.214;2023-07-22T12:49:56;28.40;99.90
9987;DHT22;5033;46.310;11.214;2023-07-22T12:52:23;28.00;99.90
9987;DHT22;5033;46.310;11.214;2023-07-22T12:54:50;27.50;99.90
9987;DHT22;5033;46.310;11.214;2023-07-22T12:57:17;27.40;99.90
9987;DHT22;5033;46.310;11.214;2023-07-22T12:59:44;27.10;99.90
9987;DHT22;5033;46.310;11.214;2023-07-22T13:02:12;26.80;99.90
9987;DHT22;5033;46.310;11.214;2023-07-22T13:04:39;26.40;99.90
9987;DHT22;5033;46.310;11.214;2023-07-22T13:07:06;26.20;99.90
9987;DHT22;5033;46.310;11.214;2023-07-22T13:09:33;26.00;99.90
9987;DHT22;5033;46.310;11.214;2023-07-22T13:12:00;25.70;99.90
9987;DHT22;5033;46.310;11.214;2023-07-22T13:14:27;25.60;99.90
9987;DHT22;5033;46.310;11.214;2023-07-22T13:16:54;25.60;99.90
9987;DHT22;5033;46.310;11.214;2023-07-22T13:19:22;25.70;99.90
9987;DHT22;5033;46.310;11.214;2023-07-22T13:21:49;25.70;99.90
9987;DHT22;5033;46.310;11.214;2023-07-22T13:24:16;25.60;99.90
9987;DHT22;5033;46.310;11.214;2023-07-22T13:26:43;25.60;99.90
9987;DHT22;5033;46.310;11.214;2023-07-22T13:29:10;25.50;99.90
9987;DHT22;5033;46.310;11.214;2023-07-22T13:31:37;25.40;99.90
9987;DHT22;5033;46.310;11.214;2023-07-22T13:34:04;25.30;99.90
9987;DHT22;5033;46.310;11.214;2023-07-22T13:36:32;25.30;99.90
9987;DHT22;5033;46.310;11.214;2023-07-22T13:38:59;25.30;99.90
9987;DHT22;5033;46.310;11.214;2023-07-22T13:41:26;25.20;99.90
9987;DHT22;5033;46.310;11.214;2023-07-22T13:43:53;25.00;99.90
9987;DHT22;5033;46.310;11.214;2023-07-22T13:46:20;24.90;99.90
9987;DHT22;5033;46.310;11.214;2023-07-22T13:48:48;24.90;99.90
9987;DHT22;5033;46.310;11.214;2023-07-22T13:51:15;25.00;99.90
9987;DHT22;5033;46.310;11.214;2023-07-22T13:53:44;25.00;99.90
9987;DHT22;5033;46.310;11.214;2023-07-22T13:56:11;25.00;99.90
9987;DHT22;5033;46.310;11.214;2023-07-22T13:58:37;24.90;99.90
9987;DHT22;5033;46.310;11.214;2023-07-22T14:01:03;24.80;99.90
9987;DHT22;5033;46.310;11.214;2023-07-22T14:03:30;24.70;99.90
9987;DHT22;5033;46.310;11.214;2023-07-22T14:05:57;24.70;99.90
9987;DHT22;5033;46.310;11.214;2023-07-22T14:08:24;25.00;99.90
9987;DHT22;5033;46.310;11.214;2023-07-22T14:10:52;25.40;99.90
9987;DHT22;5033;46.310;11.214;2023-07-22T14:13:19;25.90;99.90
9987;DHT22;5033;46.310;11.214;2023-07-22T14:15:46;26.20;99.90
9987;DHT22;5033;46.310;11.214;2023-07-22T14:18:13;26.20;99.90
9987;DHT22;5033;46.310;11.214;2023-07-22T14:20:42;26.10;99.90
9987;DHT22;5033;46.310;11.214;2023-07-22T14:23:11;26.20;99.90
9987;DHT22;5033;46.310;11.214;2023-07-22T14:25:38;26.30;99.90
9987;DHT22;5033;46.310;11.214;2023-07-22T14:28:06;26.20;99.90
9987;DHT22;5033;46.310;11.214;2023-07-22T14:30:33;26.20;99.90
9987;DHT22;5033;46.310;11.214;2023-07-22T14:33:00;26.40;99.90
9987;DHT22;5033;46.310;11.214;2023-07-22T14:35:27;26.50;99.90
9987;DHT22;5033;46.310;11.214;2023-07-22T14:37:54;26.60;99.90
9987;DHT22;5033;46.310;11.214;2023-07-22T14:40:21;26.70;99.90
9987;DHT22;5033;46.310;11.214;2023-07-22T14:42:48;27.00;99.90
9987;DHT22;5033;46.310;11.214;2023-07-22T14:45:17;27.00;99.90
9987;DHT22;5033;46.310;11.214;2023-07-22T14:47:44;27.00;99.90
9987;DHT22;5033;46.310;11.214;2023-07-22T14:50:11;26.70;99.90
9987;DHT22;5033;46.310;11.214;2023-07-22T14:52:39;26.60;99.90
9987;DHT22;5033;46.310;11.214;2023-07-22T14:55:08;26.50;99.90
9987;DHT22;5033;46.310;11.214;2023-07-22T14:57:35;26.40;99.90
9987;DHT22;5033;46.310;11.214;2023-07-22T15:00:03;26.40;99.90
9987;DHT22;5033;46.310;11.214;2023-07-22T15:02:31;26.40;99.90
9987;DHT22;5033;46.310;11.214;2023-07-22T15:04:58;26.30;99.90
9987;DHT22;5033;46.310;11.214;2023-07-22T15:07:25;26.40;99.90
9987;DHT22;5033;46.310;11.214;2023-07-22T15:09:53;26.40;99.90
9987;DHT22;5033;46.310;11.214;2023-07-22T15:12:21;26.30;99.90
9987;DHT22;5033;46.310;11.214;2023-07-22T15:14:48;26.30;99.90
9987;DHT22;5033;46.310;11.214;2023-07-22T15:17:15;26.20;99.90
9987;DHT22;5033;46.310;11.214;2023-07-22T15:19:43;26.10;99.90
9987;DHT22;5033;46.310;11.214;2023-07-22T15:22:10;26.10;99.90
9987;DHT22;5033;46.310;11.214;2023-07-22T15:24:37;26.20;99.90
9987;DHT22;5033;46.310;11.214;2023-07-22T15:27:06;26.30;99.90
9987;DHT22;5033;46.310;11.214;2023-07-22T15:29:33;26.50;99.90
9987;DHT22;5033;46.310;11.214;2023-07-22T15:31:59;26.70;99.90
9987;DHT22;5033;46.310;11.214;2023-07-22T15:34:27;26.60;99.90
9987;DHT22;5033;46.310;11.214;2023-07-22T15:36:55;26.60;99.90
9987;DHT22;5033;46.310;11.214;2023-07-22T15:39:22;26.60;99.90
9987;DHT22;5033;46.310;11.214;2023-07-22T15:41:49;26.70;99.90
9987;DHT22;5033;46.310;11.214;2023-07-22T15:44:17;26.80;99.90
9987;DHT22;5033;46.310;11.214;2023-07-22T15:46:44;26.90;99.90
9987;DHT22;5033;46.310;11.214;2023-07-22T15:49:11;26.80;99.90